createdAt,value
2017-11-19T00:01:28.772Z,94.05
2017-11-19T00:03:54.634Z,93.61
2017-11-19T00:06:20.475Z,94.46
2017-11-19T00:08:46.283Z,94.00
2017-11-19T00:11:12.347Z,94.03
2017-11-19T00:13:38.168Z,94.53
2017-11-19T00:16:03.994Z,94.35
2017-11-19T00:18:29.876Z,94.66
2017-11-19T00:20:55.752Z,94.78
2017-11-19T00:23:21.568Z,94.42
2017-11-19T00:25:47.692Z,93.89
2017-11-19T00:28:13.793Z,93.89
2017-11-19T00:30:39.683Z,93.53
2017-11-19T00:33:05.540Z,93.84
2017-11-19T00:35:31.351Z,94.78
2017-11-19T00:37:57.157Z,94.67
2017-11-19T00:40:23.014Z,94.73
2017-11-19T00:42:48.873Z,94.85
2017-11-19T00:45:14.685Z,94.79
2017-11-19T00:47:40.512Z,95.37
2017-11-19T00:50:06.310Z,94.51
2017-11-19T00:52:32.101Z,94.87
2017-11-19T00:54:57.914Z,95.22
2017-11-19T00:57:24.132Z,93.79
2017-11-19T00:59:50.311Z,93.75
2017-11-19T01:02:16.117Z,94.33
2017-11-19T01:04:41.977Z,94.70
2017-11-19T01:07:07.789Z,94.76
2017-11-19T01:09:33.622Z,94.83
2017-11-19T01:12:00.376Z,94.89
2017-11-19T01:14:26.185Z,95.42
2017-11-19T01:16:51.993Z,95.30
2017-11-19T01:19:17.828Z,94.83
2017-11-19T01:21:43.638Z,95.26
2017-11-19T01:24:09.438Z,95.19
2017-11-19T01:26:35.261Z,94.74
2017-11-19T01:29:01.094Z,95.08
2017-11-19T01:31:26.898Z,94.80
2017-11-19T01:33:53.548Z,94.76
2017-11-19T01:36:19.411Z,94.19
2017-11-19T01:38:45.222Z,93.72
2017-11-19T01:41:11.423Z,94.77
2017-11-19T01:43:37.237Z,94.83
2017-11-19T01:46:03.095Z,94.42
2017-11-19T01:48:29.025Z,94.83
2017-11-19T01:50:54.857Z,94.86
2017-11-19T01:53:20.988Z,95.27
2017-11-19T01:55:47.035Z,95.07
2017-11-19T01:58:12.883Z,94.93
2017-11-19T02:00:38.762Z,94.88
2017-11-19T02:03:04.583Z,94.43
2017-11-19T02:05:30.384Z,94.87
2017-11-19T02:07:56.191Z,94.84
2017-11-19T02:10:22.037Z,95.05
2017-11-19T02:12:47.876Z,94.66
2017-11-19T02:15:13.682Z,94.53
2017-11-19T02:17:39.529Z,95.03
2017-11-19T02:20:05.353Z,94.92
2017-11-19T02:22:31.171Z,95.52
2017-11-19T02:24:57.167Z,96.26
2017-11-19T02:27:22.974Z,96.33
2017-11-19T02:29:48.782Z,95.99
2017-11-19T02:32:14.829Z,95.53
2017-11-19T02:34:40.666Z,95.70
2017-11-19T02:37:06.496Z,95.51
2017-11-19T02:39:33.210Z,95.51
2017-11-19T02:41:59.029Z,95.73
2017-11-19T02:44:24.836Z,95.44
2017-11-19T02:46:50.669Z,95.51
2017-11-19T02:49:16.482Z,95.60
2017-11-19T02:51:42.297Z,95.65
2017-11-19T02:54:08.136Z,95.37
2017-11-19T02:56:33.944Z,95.42
2017-11-19T02:58:59.762Z,95.42
2017-11-19T03:01:25.590Z,95.70
2017-11-19T03:03:51.404Z,95.97
2017-11-19T03:06:17.224Z,95.62
2017-11-19T03:08:43.056Z,95.81
2017-11-19T03:11:08.879Z,95.69
2017-11-19T03:13:34.798Z,95.39
2017-11-19T03:16:00.610Z,95.53
2017-11-19T03:18:26.431Z,96.03
2017-11-19T03:20:52.265Z,95.66
2017-11-19T03:23:18.118Z,95.92
2017-11-19T03:25:43.956Z,95.99
2017-11-19T03:28:09.803Z,95.97
2017-11-19T03:30:35.644Z,96.29
2017-11-19T03:33:01.441Z,95.55
2017-11-19T03:35:27.262Z,95.85
2017-11-19T03:37:53.076Z,95.82
2017-11-19T03:40:19.173Z,95.61
2017-11-19T03:42:44.979Z,95.69
2017-11-19T03:45:10.806Z,95.30
2017-11-19T03:47:36.752Z,93.78
2017-11-19T03:50:02.620Z,93.39
2017-11-19T03:52:28.463Z,94.19
2017-11-19T03:54:54.302Z,95.01
2017-11-19T03:57:20.109Z,94.63
2017-11-19T03:59:45.920Z,94.89
2017-11-19T04:02:11.749Z,94.37
2017-11-19T04:04:37.562Z,94.86
2017-11-19T04:07:03.410Z,95.67
2017-11-19T04:09:29.641Z,95.71
2017-11-19T04:11:55.451Z,95.32
2017-11-19T04:14:21.253Z,94.72
2017-11-19T04:16:47.098Z,94.30
2017-11-19T04:19:12.903Z,93.99
2017-11-19T04:21:38.733Z,94.00
2017-11-19T04:24:04.579Z,93.63
2017-11-19T04:26:30.461Z,94.69
2017-11-19T04:28:56.286Z,94.98
2017-11-19T04:31:22.599Z,94.92
2017-11-19T04:33:48.425Z,94.76
2017-11-19T04:36:14.261Z,94.03
2017-11-19T04:38:40.183Z,94.15
2017-11-19T04:41:06.028Z,94.33
2017-11-19T04:43:31.839Z,93.69
2017-11-19T04:45:57.662Z,93.20
2017-11-19T04:48:23.478Z,94.41
2017-11-19T04:50:49.306Z,93.78
2017-11-19T04:53:15.180Z,94.70
2017-11-19T04:55:40.994Z,94.43
2017-11-19T04:58:06.820Z,92.53
2017-11-19T05:00:32.701Z,94.28
2017-11-19T05:02:58.517Z,92.65
2017-11-19T05:05:24.318Z,93.97
2017-11-19T05:07:50.985Z,94.61
2017-11-19T05:10:16.808Z,93.52
2017-11-19T05:12:42.622Z,92.65
2017-11-19T05:15:08.427Z,92.94
2017-11-19T05:17:34.895Z,94.08
2017-11-19T05:20:00.834Z,94.23
2017-11-19T05:22:26.642Z,94.62
2017-11-19T05:24:52.797Z,93.00
2017-11-19T05:27:18.634Z,94.09
2017-11-19T05:29:44.453Z,94.23
2017-11-19T05:32:10.301Z,94.79
2017-11-19T05:34:36.423Z,94.58
2017-11-19T05:37:02.238Z,94.65
2017-11-19T05:39:28.038Z,94.47
2017-11-19T05:41:53.905Z,94.08
2017-11-19T05:44:19.715Z,94.38
2017-11-19T05:46:45.525Z,93.73
2017-11-19T05:49:11.737Z,94.02
2017-11-19T05:51:37.574Z,94.63
2017-11-19T05:54:03.454Z,93.37
2017-11-19T05:56:29.603Z,94.11
2017-11-19T05:58:55.401Z,93.49
2017-11-19T06:01:21.227Z,94.02
2017-11-19T06:03:47.058Z,93.95
2017-11-19T06:06:12.886Z,94.76
2017-11-19T06:08:38.693Z,94.46
2017-11-19T06:11:04.827Z,94.04
2017-11-19T06:13:30.651Z,93.98
2017-11-19T06:15:56.472Z,94.55
2017-11-19T06:18:22.289Z,92.23
2017-11-19T06:20:48.091Z,93.88
2017-11-19T06:23:13.902Z,94.32
2017-11-19T06:25:39.732Z,94.94
2017-11-19T06:28:05.541Z,95.33
2017-11-19T06:30:31.366Z,95.21
2017-11-19T06:32:57.225Z,95.61
2017-11-19T06:35:23.041Z,94.82
2017-11-19T06:37:48.873Z,94.60
2017-11-19T06:40:14.701Z,95.00
2017-11-19T06:42:40.515Z,94.14
2017-11-19T06:45:06.321Z,94.67
2017-11-19T06:47:32.146Z,94.79
2017-11-19T06:49:57.980Z,94.73
2017-11-19T06:52:23.799Z,95.17
2017-11-19T06:54:49.615Z,95.40
2017-11-19T06:57:15.739Z,95.29
2017-11-19T06:59:41.556Z,95.18
2017-11-19T07:02:07.370Z,95.22
2017-11-19T07:04:33.194Z,94.72
2017-11-19T07:06:58.997Z,94.88
2017-11-19T07:09:24.833Z,94.47
2017-11-19T07:11:50.625Z,94.84
2017-11-19T07:14:16.450Z,95.13
2017-11-19T07:16:42.309Z,95.18
2017-11-19T07:19:08.143Z,94.95
2017-11-19T07:21:33.965Z,95.01
2017-11-19T07:23:59.838Z,95.11
2017-11-19T07:26:25.645Z,95.22
2017-11-19T07:28:51.463Z,95.51
2017-11-19T07:31:17.361Z,95.73
2017-11-19T07:33:43.222Z,95.74
2017-11-19T07:36:09.071Z,95.29
2017-11-19T07:38:34.901Z,95.74
2017-11-19T07:41:00.719Z,95.94
2017-11-19T07:43:27.007Z,95.69
2017-11-19T07:45:52.867Z,96.32
2017-11-19T07:48:18.723Z,96.15
2017-11-19T07:50:45.263Z,96.72
2017-11-19T07:53:11.656Z,96.34
2017-11-19T07:55:37.533Z,96.39
2017-11-19T07:58:03.354Z,95.86
2017-11-19T08:00:29.284Z,96.14
2017-11-19T08:02:55.124Z,96.65
2017-11-19T08:05:20.965Z,96.28
2017-11-19T08:07:46.797Z,96.62
2017-11-19T08:10:13.291Z,96.69
2017-11-19T08:12:39.223Z,96.29
2017-11-19T08:15:05.057Z,96.12
2017-11-19T08:17:30.901Z,96.10
2017-11-19T08:19:56.722Z,95.57
2017-11-19T08:22:22.558Z,95.64
2017-11-19T08:24:48.393Z,96.25
2017-11-19T08:27:14.198Z,96.55
2017-11-19T08:29:40.051Z,96.29
2017-11-19T08:32:05.878Z,96.37
2017-11-19T08:34:31.677Z,96.41
2017-11-19T08:36:57.494Z,96.60
2017-11-19T08:39:23.318Z,96.14
2017-11-19T08:41:49.113Z,96.14
2017-11-19T08:44:15.569Z,96.06
2017-11-19T08:46:41.367Z,95.84
2017-11-19T08:49:07.210Z,96.09
2017-11-19T08:51:33.031Z,95.67
2017-11-19T08:53:58.879Z,95.69
2017-11-19T08:56:24.748Z,95.74
2017-11-19T08:58:50.565Z,95.76
2017-11-19T09:01:16.363Z,95.44
2017-11-19T09:03:42.311Z,95.55
2017-11-19T09:06:08.145Z,95.58
2017-11-19T09:08:34.405Z,95.23
2017-11-19T09:11:00.599Z,95.11
2017-11-19T09:13:26.430Z,95.25
2017-11-19T09:15:52.242Z,94.55
2017-11-19T09:18:18.117Z,94.53
2017-11-19T09:20:43.932Z,94.34
2017-11-19T09:23:09.736Z,94.60
2017-11-19T09:25:35.570Z,94.25
2017-11-19T09:28:01.668Z,93.39
2017-11-19T09:30:27.516Z,92.58
2017-11-19T09:32:53.385Z,92.21
2017-11-19T09:35:19.228Z,92.25
2017-11-19T09:37:45.103Z,92.09
2017-11-19T09:40:11.005Z,92.58
2017-11-19T09:42:36.806Z,92.54
2017-11-19T09:45:02.882Z,92.31
2017-11-19T09:47:28.741Z,91.46
2017-11-19T09:49:54.562Z,91.36
2017-11-19T09:52:20.392Z,90.83
2017-11-19T09:54:46.218Z,91.33
2017-11-19T09:57:12.057Z,91.26
2017-11-19T09:59:37.941Z,90.09
2017-11-19T10:02:03.755Z,89.89
2017-11-19T10:04:29.632Z,89.35
2017-11-19T10:06:55.762Z,89.00
2017-11-19T10:09:21.590Z,87.67
2017-11-19T10:11:47.382Z,87.06
2017-11-19T10:14:13.222Z,86.59
2017-11-19T10:16:39.038Z,86.71
2017-11-19T10:19:04.899Z,84.19
2017-11-19T10:21:30.774Z,84.33
2017-11-19T10:23:56.589Z,83.95
2017-11-19T10:26:22.409Z,83.18
2017-11-19T10:28:49.601Z,80.98
2017-11-19T10:31:15.434Z,80.20
2017-11-19T10:33:42.207Z,78.84
2017-11-19T10:36:09.185Z,74.37
2017-11-19T10:38:35.081Z,72.87
2017-11-19T10:41:01.772Z,73.76
2017-11-19T10:43:27.954Z,73.54
2017-11-19T10:45:54.803Z,74.03
2017-11-19T10:48:21.563Z,75.22
2017-11-19T10:50:48.085Z,73.15
2017-11-19T10:53:14.153Z,73.26
2017-11-19T10:55:40.157Z,74.75
2017-11-19T10:58:05.985Z,71.96
2017-11-19T11:00:31.791Z,73.10
2017-11-19T11:02:57.598Z,76.46
2017-11-19T11:05:23.435Z,72.69
2017-11-19T11:07:49.244Z,74.90
2017-11-19T11:10:15.049Z,73.87
2017-11-19T11:12:40.869Z,74.09
2017-11-19T11:15:06.676Z,73.27
2017-11-19T11:17:32.481Z,74.29
2017-11-19T11:19:58.600Z,74.72
2017-11-19T11:22:24.393Z,75.00
2017-11-19T11:24:51.165Z,75.54
2017-11-19T11:27:17.605Z,74.42
2017-11-19T11:29:43.708Z,74.42
2017-11-19T11:32:09.720Z,74.92
2017-11-19T11:34:35.577Z,73.44
2017-11-19T11:37:01.516Z,73.24
2017-11-19T11:39:27.366Z,74.68
2017-11-19T11:41:53.201Z,74.01
2017-11-19T11:44:19.554Z,73.78
2017-11-19T11:46:45.574Z,73.59
2017-11-19T11:49:11.553Z,73.49
2017-11-19T11:51:37.341Z,75.00
2017-11-19T11:54:03.660Z,73.82
2017-11-19T11:56:29.511Z,73.68
2017-11-19T11:58:55.484Z,74.53
2017-11-19T12:01:21.337Z,76.58
2017-11-19T12:03:47.158Z,75.55
2017-11-19T12:06:12.948Z,75.69
2017-11-19T12:08:40.907Z,77.18
2017-11-19T12:11:06.764Z,76.22
2017-11-19T12:13:32.801Z,75.82
2017-11-19T12:15:58.644Z,76.79
2017-11-19T12:18:24.708Z,77.02
2017-11-19T12:20:50.555Z,77.27
2017-11-19T12:23:16.353Z,77.49
2017-11-19T12:25:42.195Z,76.68
2017-11-19T12:28:08.269Z,74.79
2017-11-19T12:30:34.118Z,73.33
2017-11-19T12:33:00.123Z,72.36
2017-11-19T12:35:25.978Z,73.27
2017-11-19T12:37:51.942Z,72.34
2017-11-19T12:40:17.810Z,72.94
2017-11-19T12:42:43.629Z,75.34
2017-11-19T12:45:09.441Z,74.83
2017-11-19T12:47:35.263Z,75.84
2017-11-19T12:50:01.085Z,75.99
2017-11-19T12:52:26.885Z,77.02
2017-11-19T12:54:52.770Z,76.12
2017-11-19T12:57:18.609Z,76.22
2017-11-19T12:59:44.457Z,76.64
2017-11-19T13:02:10.281Z,77.21
2017-11-19T13:04:36.125Z,76.69
2017-11-19T13:07:01.936Z,76.15
2017-11-19T13:09:27.741Z,76.18
2017-11-19T13:11:53.695Z,75.97
2017-11-19T13:14:19.505Z,76.18
2017-11-19T13:16:45.296Z,76.67
2017-11-19T13:19:11.152Z,77.83
2017-11-19T13:21:37.001Z,77.20
2017-11-19T13:24:02.909Z,75.63
2017-11-19T13:26:28.733Z,75.91
2017-11-19T13:28:54.538Z,76.57
2017-11-19T13:31:20.353Z,77.00
2017-11-19T13:33:46.162Z,76.84
2017-11-19T13:36:11.973Z,76.46
2017-11-19T13:38:37.951Z,76.29
2017-11-19T13:41:03.782Z,77.89
2017-11-19T13:43:29.596Z,76.84
2017-11-19T13:45:55.444Z,76.63
2017-11-19T13:48:21.249Z,76.41
2017-11-19T13:50:47.099Z,77.59
2017-11-19T13:53:13.053Z,77.80
2017-11-19T13:55:38.869Z,77.83
2017-11-19T13:58:04.680Z,77.34
2017-11-19T14:00:30.530Z,78.10
2017-11-19T14:02:56.321Z,79.13
2017-11-19T14:05:22.140Z,79.25
2017-11-19T14:07:47.983Z,79.59
2017-11-19T14:10:13.793Z,79.61
2017-11-19T14:12:39.593Z,80.00
2017-11-19T14:15:05.408Z,80.43
2017-11-19T14:17:31.210Z,80.52
2017-11-19T14:19:57.005Z,81.10
2017-11-19T14:22:22.850Z,81.20
2017-11-19T14:24:48.674Z,80.92
2017-11-19T14:27:14.490Z,81.16
2017-11-19T14:29:40.305Z,81.55
2017-11-19T14:32:06.152Z,81.16
2017-11-19T14:34:31.959Z,81.23
2017-11-19T14:36:57.786Z,81.68
2017-11-19T14:39:23.944Z,80.39
2017-11-19T14:41:49.875Z,80.52
2017-11-19T14:44:15.699Z,79.47
2017-11-19T14:46:41.551Z,80.15
2017-11-19T14:49:07.366Z,79.13
2017-11-19T14:51:33.166Z,79.09
2017-11-19T14:53:59.099Z,78.97
2017-11-19T14:56:24.906Z,78.52
2017-11-19T14:58:50.715Z,77.60
2017-11-19T15:01:16.566Z,77.06
2017-11-19T15:03:42.408Z,75.80
2017-11-19T15:06:08.214Z,75.81
2017-11-19T15:08:34.309Z,76.19
2017-11-19T15:11:00.123Z,76.52
2017-11-19T15:13:25.939Z,76.46
2017-11-19T15:15:52.080Z,76.45
2017-11-19T15:20:43.621Z,76.54
2017-11-19T15:23:09.459Z,76.73
2017-11-19T15:25:35.263Z,76.39
2017-11-19T15:28:01.061Z,76.71
2017-11-19T15:30:26.898Z,76.65
2017-11-19T15:32:52.696Z,76.78
2017-11-19T15:35:18.500Z,77.21
2017-11-19T15:37:44.309Z,77.65
2017-11-19T15:40:10.127Z,77.67
2017-11-19T15:42:35.973Z,77.84
2017-11-19T15:45:01.820Z,77.83
2017-11-19T15:47:27.647Z,78.31
2017-11-19T15:49:53.565Z,78.40
2017-11-19T15:52:19.388Z,78.40
2017-11-19T15:54:45.206Z,78.37
2017-11-19T15:57:11.050Z,78.44
2017-11-19T15:59:36.920Z,78.59
2017-11-19T16:02:02.748Z,79.10
2017-11-19T16:04:28.959Z,79.16
2017-11-19T16:06:54.793Z,78.74
2017-11-19T16:09:20.608Z,79.12
2017-11-19T16:11:46.715Z,78.34
2017-11-19T16:14:12.526Z,78.78
2017-11-19T16:16:38.337Z,79.14
2017-11-19T16:19:04.176Z,79.17
2017-11-19T16:21:29.973Z,79.16
2017-11-19T16:23:56.605Z,79.15
2017-11-19T16:26:22.431Z,78.02
2017-11-19T16:28:48.271Z,78.08
2017-11-19T16:31:14.187Z,78.15
2017-11-19T16:33:40.006Z,77.11
2017-11-19T16:36:05.841Z,76.25
2017-11-19T16:38:32.869Z,76.32
2017-11-19T16:40:58.810Z,76.53
2017-11-19T16:43:24.635Z,74.58
2017-11-19T16:45:50.473Z,74.67
2017-11-19T16:48:16.295Z,76.40
2017-11-19T16:50:42.122Z,74.52
2017-11-19T16:53:08.004Z,74.76
2017-11-19T16:55:33.832Z,76.11
2017-11-19T16:57:59.666Z,72.54
2017-11-19T17:00:25.758Z,73.03
2017-11-19T17:02:51.574Z,72.59
2017-11-19T17:05:17.420Z,72.93
2017-11-19T17:07:43.379Z,72.79
2017-11-19T17:10:09.929Z,74.12
2017-11-19T17:12:35.797Z,74.84
2017-11-19T17:15:01.676Z,76.73
2017-11-19T17:17:27.488Z,75.40
2017-11-19T17:19:53.419Z,75.74
2017-11-19T17:22:19.257Z,76.52
2017-11-19T17:24:45.318Z,76.68
2017-11-19T17:27:11.137Z,76.70
2017-11-19T17:29:37.065Z,77.07
2017-11-19T17:32:02.908Z,77.70
2017-11-19T17:34:28.742Z,77.67
2017-11-19T17:36:54.863Z,77.96
2017-11-19T17:39:20.688Z,78.13
2017-11-19T17:41:46.600Z,78.91
2017-11-19T17:44:12.449Z,79.04
2017-11-19T17:46:38.487Z,78.44
2017-11-19T17:49:04.301Z,79.04
2017-11-19T17:51:30.307Z,79.06
2017-11-19T17:53:56.122Z,79.76
2017-11-19T17:56:21.955Z,80.20
2017-11-19T17:58:47.776Z,79.56
2017-11-19T18:01:13.657Z,79.96
2017-11-19T18:03:39.617Z,80.42
2017-11-19T18:06:05.433Z,80.79
2017-11-19T18:08:31.411Z,80.79
2017-11-19T18:10:57.249Z,81.04
2017-11-19T18:13:23.061Z,81.28
2017-11-19T18:15:48.922Z,81.37
2017-11-19T18:18:14.820Z,81.32
2017-11-19T18:20:40.630Z,81.27
2017-11-19T18:23:06.576Z,81.51
2017-11-19T18:25:32.422Z,81.69
2017-11-19T18:27:58.231Z,81.63
2017-11-19T18:30:24.183Z,81.39
2017-11-19T18:32:49.976Z,82.03
2017-11-19T18:35:15.836Z,81.47
2017-11-19T18:37:42.064Z,81.75
2017-11-19T18:40:08.010Z,81.39
2017-11-19T18:42:33.827Z,80.70
2017-11-19T18:44:59.925Z,81.39
2017-11-19T18:47:25.848Z,80.83
2017-11-19T18:49:52.520Z,81.20
2017-11-19T18:52:18.410Z,81.44
2017-11-19T18:54:44.289Z,81.60
2017-11-19T18:57:11.093Z,81.66
2017-11-19T18:59:37.118Z,81.38
2017-11-19T19:02:02.938Z,81.36
2017-11-19T19:04:28.737Z,81.82
2017-11-19T19:06:54.764Z,81.67
2017-11-19T19:09:20.626Z,82.65
2017-11-19T19:11:46.587Z,81.72
2017-11-19T19:14:12.413Z,82.05
2017-11-19T19:16:38.222Z,81.93
2017-11-19T19:19:04.349Z,82.68
2017-11-19T19:21:30.172Z,81.91
2017-11-19T19:23:56.006Z,81.82
2017-11-19T19:26:21.858Z,81.34
2017-11-19T19:28:47.694Z,81.09
2017-11-19T19:31:13.506Z,81.32
2017-11-19T19:33:39.371Z,81.68
2017-11-19T19:36:05.559Z,81.46
2017-11-19T19:38:32.086Z,81.70
2017-11-19T19:40:58.416Z,81.22
2017-11-19T19:43:24.872Z,81.67
2017-11-19T19:45:51.532Z,81.67
2017-11-19T19:48:18.500Z,81.35
2017-11-19T19:50:45.289Z,81.41
2017-11-19T19:53:12.167Z,81.53
2017-11-19T19:55:38.626Z,81.58
2017-11-19T19:58:05.112Z,81.77
2017-11-19T20:00:31.750Z,81.84
2017-11-19T20:02:58.203Z,81.85
2017-11-19T20:05:25.171Z,82.29
2017-11-19T20:07:52.013Z,81.79
2017-11-19T20:10:19.856Z,81.62
2017-11-19T20:12:46.691Z,81.68
2017-11-19T20:15:13.463Z,81.83
2017-11-19T20:17:40.082Z,81.66
2017-11-19T20:20:07.067Z,81.94
2017-11-19T20:22:33.835Z,81.98
2017-11-19T20:25:00.889Z,81.69
2017-11-19T20:27:28.651Z,83.84
2017-11-19T20:29:55.559Z,82.55
2017-11-19T20:32:22.545Z,82.39
2017-11-19T20:34:49.414Z,82.59
2017-11-19T20:37:18.052Z,82.74
2017-11-19T20:39:45.057Z,82.69
2017-11-19T20:42:15.104Z,83.03
2017-11-19T20:44:43.366Z,82.93
2017-11-19T20:47:11.207Z,84.05
2017-11-19T20:49:38.524Z,82.89
2017-11-19T20:52:05.497Z,83.47
2017-11-19T20:54:33.286Z,83.72
2017-11-19T20:57:01.940Z,83.25
2017-11-19T20:59:30.110Z,83.83
2017-11-19T21:01:57.983Z,84.28
2017-11-19T21:04:26.762Z,83.93
2017-11-19T21:06:53.903Z,83.85
2017-11-19T21:09:22.089Z,83.42
2017-11-19T21:11:49.874Z,84.21
2017-11-19T21:14:17.901Z,83.92
2017-11-19T21:16:44.822Z,83.73
2017-11-19T21:19:10.670Z,82.87
2017-11-19T21:21:36.481Z,82.82
2017-11-19T21:24:02.272Z,82.88
2017-11-19T21:26:28.154Z,83.12
2017-11-19T21:28:53.967Z,82.62
2017-11-19T21:31:21.750Z,83.54
2017-11-19T21:33:47.840Z,83.18
2017-11-19T21:36:13.889Z,82.99
2017-11-19T21:38:39.758Z,83.16
2017-11-19T21:41:05.605Z,83.33
2017-11-19T21:43:31.532Z,83.69
2017-11-19T21:45:57.366Z,83.19
2017-11-19T21:48:33.098Z,85.18
2017-11-19T21:50:59.490Z,84.64
2017-11-19T21:53:25.344Z,83.85
2017-11-19T21:55:51.305Z,81.59
2017-11-19T21:58:17.139Z,82.02
2017-11-19T22:00:43.025Z,82.24
2017-11-19T22:03:08.973Z,82.71
2017-11-19T22:05:34.785Z,82.64
2017-11-19T22:08:00.873Z,81.35
2017-11-19T22:10:26.747Z,81.06
2017-11-19T22:12:52.557Z,80.39
2017-11-19T22:15:18.380Z,80.45
2017-11-19T22:17:44.422Z,81.29
2017-11-19T22:20:10.630Z,80.94
2017-11-19T22:22:36.946Z,81.81
2017-11-19T22:25:02.802Z,80.66
2017-11-19T22:27:28.690Z,81.43
2017-11-19T22:29:54.493Z,82.13
2017-11-19T22:32:20.304Z,81.86
2017-11-19T22:34:46.401Z,81.47
2017-11-19T22:37:12.209Z,82.24
2017-11-19T22:39:38.164Z,82.14
2017-11-19T22:42:04.028Z,82.94
2017-11-19T22:44:29.964Z,83.12
2017-11-19T22:46:55.790Z,83.65
2017-11-19T22:49:21.601Z,83.68
2017-11-19T22:51:47.401Z,83.75
2017-11-19T22:54:13.254Z,83.42
2017-11-19T22:56:39.281Z,83.62
2017-11-19T22:59:05.136Z,84.77
2017-11-19T23:01:31.364Z,84.89
2017-11-19T23:03:57.157Z,84.97
2017-11-19T23:06:23.168Z,84.50
2017-11-19T23:08:49.010Z,85.08
2017-11-19T23:11:14.829Z,85.65
2017-11-19T23:13:40.654Z,85.09
2017-11-19T23:16:06.503Z,85.36
2017-11-19T23:18:32.399Z,84.63
2017-11-19T23:20:58.332Z,85.12
2017-11-19T23:23:24.403Z,84.75
2017-11-19T23:25:50.209Z,84.57
2017-11-19T23:28:16.009Z,83.16
2017-11-19T23:30:41.834Z,84.94
2017-11-19T23:33:07.638Z,84.42
2017-11-19T23:35:33.443Z,84.91
2017-11-19T23:37:59.626Z,83.91
2017-11-19T23:40:25.424Z,84.95
2017-11-19T23:42:51.244Z,85.09
2017-11-19T23:45:17.096Z,84.80
2017-11-19T23:47:42.897Z,85.40
2017-11-19T23:50:08.726Z,85.38
2017-11-19T23:52:34.734Z,85.65
2017-11-19T23:55:00.558Z,86.54
2017-11-19T23:57:26.383Z,86.80
2017-11-19T23:59:52.210Z,86.85
